Time;durP1;ratioP1;P1;durP2;ratioP2;P2;SDS_P1;SDS_P2;PMS_P1;PMS_P2;Temp;Humidity;BMP_temperature;BMP_pressure;BME280_temperature;BME280_humidity;BME280_pressure;Samples;Min_cycle;Max_cycle;Signal;HPM_P1;HPM_P2
2023/07/30 00:02:20;;;;;;;;;3.00;2.00;;;;;20.97;54.14;100774.94;5039447;28;46999;-63
2023/07/30 00:04:45;;;;;;;;;3.00;3.00;;;;;20.94;54.35;100782.19;5039238;28;45390;-63
2023/07/30 00:07:11;;;;;;;;;2.25;2.25;;;;;20.92;54.43;100792.09;5026557;28;45529;-63
2023/07/30 00:09:38;;;;;;;;;1.50;1.50;;;;;20.91;54.63;100797.53;5024682;28;45477;-63
2023/07/30 00:12:05;;;;;;;;;2.50;2.00;;;;;20.88;54.45;100795.03;5023227;28;45393;-63
2023/07/30 00:14:30;;;;;;;;;2.00;2.00;;;;;20.85;54.99;100806.75;5039433;28;45604;-63
2023/07/30 00:16:55;;;;;;;;;3.00;3.00;;;;;20.82;54.82;100812.25;5039265;28;45578;-63
2023/07/30 00:19:21;;;;;;;;;1.00;1.00;;;;;20.81;54.89;100820.38;5039139;28;54496;-63
2023/07/30 00:21:47;;;;;;;;;2.75;1.75;;;;;20.80;54.73;100814.16;5039037;28;46220;-63
2023/07/30 00:24:13;;;;;;;;;1.00;1.00;;;;;20.79;54.93;100815.09;5038985;28;54422;-63
2023/07/30 00:26:38;;;;;;;;;2.25;1.25;;;;;20.76;54.54;100817.94;5039362;28;45288;-63
2023/07/30 00:29:03;;;;;;;;;2.75;2.25;;;;;20.72;54.92;100819.94;5039173;28;45511;-63
2023/07/30 00:31:29;;;;;;;;;1.00;1.00;;;;;20.67;54.34;100807.75;5025673;28;46495;-63
2023/07/30 00:33:54;;;;;;;;;1.75;1.75;;;;;20.71;54.92;100817.34;5026338;28;45325;-63
2023/07/30 00:36:20;;;;;;;;;1.00;1.00;;;;;20.68;54.73;100820.13;5022892;28;45436;-63
2023/07/30 00:38:45;;;;;;;;;1.75;1.75;;;;;20.66;54.67;100817.56;5022539;28;45766;-63
2023/07/30 00:41:10;;;;;;;;;1.33;1.33;;;;;20.67;55.07;100821.97;5022547;28;46167;-62
2023/07/30 00:43:36;;;;;;;;;2.00;2.00;;;;;20.64;54.92;100816.81;5022621;28;45290;-63
2023/07/30 00:46:02;;;;;;;;;2.00;1.50;;;;;20.61;54.94;100820.47;5022563;28;45689;-62
2023/07/30 00:48:28;;;;;;;;;1.00;1.00;;;;;20.59;54.81;100817.03;5028885;28;45514;-63
2023/07/30 00:50:53;;;;;;;;;2.25;2.25;;;;;20.58;54.64;100827.81;5022469;28;45296;-62
2023/07/30 00:53:22;;;;;;;;;1.75;1.75;;;;;20.54;54.46;100824.44;5022435;28;45231;-63
2023/07/30 00:55:48;;;;;;;;;2.00;2.00;;;;;20.52;54.15;100830.81;5004780;28;45389;-62
2023/07/30 00:58:13;;;;;;;;;1.50;1.50;;;;;20.50;54.42;100832.69;5023003;28;45392;-63
2023/07/30 01:00:40;;;;;;;;;1.25;1.25;;;;;20.46;54.38;100840.00;5042145;28;46144;-63
2023/07/30 01:03:05;;;;;;;;;1.50;1.00;;;;;20.44;53.95;100842.75;5029249;28;45364;-63
2023/07/30 01:05:31;;;;;;;;;1.00;1.00;;;;;20.39;54.39;100843.94;5042475;28;45294;-63
2023/07/30 01:07:56;;;;;;;;;1.00;1.00;;;;;20.37;53.94;100845.84;5042261;28;45451;-63
2023/07/30 01:10:22;;;;;;;;;2.00;2.00;;;;;20.35;54.35;100853.06;5041760;28;51884;-63
2023/07/30 01:12:48;;;;;;;;;1.50;1.00;;;;;20.32;53.90;100863.91;5042067;28;45272;-63
2023/07/30 01:15:14;;;;;;;;;1.00;1.00;;;;;20.27;54.01;100859.66;5041958;28;45150;-62
2023/07/30 01:17:39;;;;;;;;;2.00;1.00;;;;;20.24;53.90;100873.19;5042025;28;45223;-62
2023/07/30 01:20:05;;;;;;;;;0.00;0.00;;;;;20.20;54.00;100862.75;5042013;28;46109;-63
2023/07/30 01:22:31;;;;;;;;;1.00;1.00;;;;;20.18;54.35;100868.16;5041711;28;45218;-63
2023/07/30 01:24:56;;;;;;;;;0.00;0.00;;;;;20.17;54.40;100886.94;5041872;28;45826;-62
2023/07/30 01:27:39;;;;;;;;;1.50;0.50;;;;;20.13;54.18;100879.06;5041968;28;45174;-63
2023/07/30 01:30:13;;;;;;;;;1.00;0.00;;;;;20.12;54.33;100881.81;5041699;28;46459;-63
2023/07/30 01:32:40;;;;;;;;;1.00;1.00;;;;;20.08;53.87;100878.44;5041897;28;45289;-63
2023/07/30 01:35:07;;;;;;;;;2.75;1.00;;;;;20.05;53.65;100886.63;5041675;28;45362;-62
2023/07/30 01:37:33;;;;;;;;;1.50;1.50;;;;;20.03;53.91;100888.50;5041612;28;45409;-62
2023/07/30 01:40:00;;;;;;;;;1.00;1.00;;;;;20.01;53.62;100885.03;5041436;28;45593;-63
2023/07/30 01:42:31;;;;;;;;;2.50;1.00;;;;;20.01;53.57;100897.53;5041561;28;45326;-63
2023/07/30 01:44:56;;;;;;;;;0.75;0.50;;;;;20.00;53.95;100912.69;5041249;28;45381;-63
2023/07/30 01:47:22;;;;;;;;;1.00;1.00;;;;;19.99;53.93;100910.94;5041351;28;45423;-62
2023/07/30 01:49:47;;;;;;;;;2.00;1.00;;;;;19.97;53.58;100920.81;5041465;28;45333;-62
2023/07/30 01:52:12;;;;;;;;;0.75;0.75;;;;;19.96;54.08;100930.63;5041514;28;45375;-62
2023/07/30 01:54:38;;;;;;;;;2.25;0.25;;;;;19.93;53.61;100928.09;5041372;28;48570;-62
2023/07/30 01:57:03;;;;;;;;;0.50;0.25;;;;;19.87;53.97;100917.75;5041121;28;45447;-63
2023/07/30 01:59:29;;;;;;;;;1.00;1.00;;;;;19.88;53.96;100918.63;5041297;28;45821;-62
2023/07/30 02:01:54;;;;;;;;;2.00;1.00;;;;;19.78;53.50;100919.03;5039981;28;45333;-62
2023/07/30 02:04:19;;;;;;;;;3.00;1.00;;;;;19.81;53.49;100929.56;5023396;28;45277;-62
2023/07/30 02:06:45;;;;;;;;;2.50;1.00;;;;;19.78;53.44;100928.84;5040943;28;50627;-62
2023/07/30 02:09:10;;;;;;;;;3.50;0.75;;;;;19.77;53.44;100927.13;5041158;28;46179;-62
2023/07/30 02:11:35;;;;;;;;;3.00;1.25;;;;;19.74;53.33;100938.81;5040462;28;54592;-62
2023/07/30 02:14:00;;;;;;;;;1.00;1.00;;;;;19.70;53.94;100929.25;5041085;28;46984;-62
2023/07/30 02:16:26;;;;;;;;;1.00;1.00;;;;;19.69;53.78;100935.50;5020020;28;50974;-62
2023/07/30 02:18:51;;;;;;;;;3.00;0.00;;;;;19.69;53.60;100932.84;5030084;28;57250;-62
2023/07/30 02:21:16;;;;;;;;;1.00;1.00;;;;;19.65;53.41;100936.59;5020960;28;45313;-63
2023/07/30 02:23:42;;;;;;;;;0.25;0.25;;;;;19.61;53.86;100941.22;5021105;28;45412;-63
2023/07/30 02:26:07;;;;;;;;;1.00;0.75;;;;;19.61;53.42;100940.38;5020921;28;45455;-62
2023/07/30 02:28:32;;;;;;;;;1.00;1.00;;;;;19.58;53.88;100943.16;5020784;28;47367;-62
2023/07/30 02:30:58;;;;;;;;;1.00;1.00;;;;;19.54;53.37;100939.78;5019451;28;45237;-62
2023/07/30 02:33:23;;;;;;;;;1.00;1.00;;;;;19.52;53.95;100941.69;5021278;28;45384;-62
2023/07/30 02:35:48;;;;;;;;;1.00;1.00;;;;;19.47;53.82;100939.22;5020848;28;45532;-62
2023/07/30 02:38:13;;;;;;;;;1.00;1.00;;;;;19.46;54.15;100942.81;5020924;28;45190;-62
2023/07/30 02:40:39;;;;;;;;;1.75;1.50;;;;;19.43;54.04;100936.78;5020190;28;56795;-62
2023/07/30 02:43:04;;;;;;;;;0.50;0.50;;;;;19.42;53.61;100943.91;5020477;28;54473;-62
2023/07/30 02:45:30;;;;;;;;;1.75;1.00;;;;;19.37;53.82;100945.06;5019187;28;45427;-62
2023/07/30 02:47:55;;;;;;;;;0.50;0.50;;;;;19.34;54.17;100943.41;5020864;28;45259;-62
2023/07/30 02:50:20;;;;;;;;;1.00;1.00;;;;;19.33;53.94;100950.53;5020740;28;45215;-62
2023/07/30 02:52:46;;;;;;;;;3.50;1.75;;;;;19.30;54.11;100948.00;5020839;28;45227;-62
2023/07/30 02:55:11;;;;;;;;;3.75;2.00;;;;;19.28;53.85;100939.25;5020109;28;45515;-62
2023/07/30 02:57:36;;;;;;;;;0.00;0.00;;;;;19.27;54.18;100949.94;5019925;28;46027;-62
2023/07/30 03:00:04;;;;;;;;;1.25;1.25;;;;;19.22;54.07;100944.88;5035639;28;53804;-62
2023/07/30 03:02:29;;;;;;;;;0.75;0.75;;;;;19.21;54.10;100947.59;5040544;28;45254;-62
2023/07/30 03:04:54;;;;;;;;;1.50;1.50;;;;;19.19;53.76;100939.66;5040162;28;45329;-63
2023/07/30 03:07:20;;;;;;;;;2.00;1.00;;;;;19.20;54.00;100948.53;5040210;28;52639;-62
2023/07/30 03:09:46;;;;;;;;;2.00;1.75;;;;;19.19;54.10;100954.78;5040289;28;45274;-62
2023/07/30 03:12:11;;;;;;;;;0.00;0.00;;;;;19.17;54.23;100942.41;5022472;28;45463;-63
2023/07/30 03:14:36;;;;;;;;;1.00;1.00;;;;;19.17;54.28;100941.56;5040212;28;45311;-62
2023/07/30 03:17:02;;;;;;;;;2.00;0.50;;;;;19.16;54.21;100951.31;5040158;28;46269;-62
2023/07/30 03:19:27;;;;;;;;;1.50;1.00;;;;;19.15;53.91;100952.25;5040217;28;45472;-62
2023/07/30 03:21:52;;;;;;;;;2.00;0.00;;;;;19.13;54.13;100954.16;5039011;28;48716;-62
2023/07/30 03:24:18;;;;;;;;;2.75;1.75;;;;;19.10;54.41;100958.75;5040212;28;45247;-62
2023/07/30 03:26:43;;;;;;;;;2.00;1.00;;;;;19.10;54.24;100956.94;5039094;28;45287;-62
2023/07/30 03:29:08;;;;;;;;;2.75;1.00;;;;;19.07;54.42;100957.09;5040082;28;45259;-62
2023/07/30 03:31:34;;;;;;;;;4.00;1.00;;;;;19.05;54.30;100960.75;5040005;28;45516;-62
2023/07/30 03:33:59;;;;;;;;;1.75;1.00;;;;;19.05;54.60;100956.28;5039879;28;45464;-62
2023/07/30 03:36:24;;;;;;;;;2.00;1.00;;;;;19.05;54.38;100960.75;5039644;28;50374;-62
2023/07/30 03:38:50;;;;;;;;;1.25;1.00;;;;;19.03;54.25;100963.50;5022150;28;46133;-62
2023/07/30 03:41:15;;;;;;;;;3.25;2.00;;;;;19.00;54.66;100966.28;5039885;28;45183;-62
2023/07/30 03:43:40;;;;;;;;;1.75;1.75;;;;;19.02;54.33;100971.53;5039604;28;51238;-62
2023/07/30 03:46:05;;;;;;;;;3.25;1.50;;;;;19.00;54.19;100969.84;5039350;28;51430;-62
2023/07/30 03:48:31;;;;;;;;;5.00;2.00;;;;;18.98;54.34;100974.38;5038105;28;57382;-62
2023/07/30 03:50:56;;;;;;;;;1.00;1.00;;;;;18.95;54.37;100974.50;5039982;28;45301;-63
2023/07/30 03:53:22;;;;;;;;;2.00;2.00;;;;;18.94;54.65;100974.56;5039697;28;45449;-62
2023/07/30 03:55:47;;;;;;;;;2.75;2.50;;;;;18.94;54.42;100977.22;5039517;28;45271;-62
2023/07/30 03:58:13;;;;;;;;;2.25;2.00;;;;;18.93;54.49;100986.13;5039515;28;45468;-62
2023/07/30 04:00:39;;;;;;;;;5.75;2.25;;;;;18.90;54.16;100981.81;5039564;28;45341;-62
2023/07/30 04:03:04;;;;;;;;;4.50;1.75;;;;;18.89;54.83;100985.38;5039516;28;45315;-62
2023/07/30 04:05:30;;;;;;;;;2.00;2.00;;;;;18.86;54.40;100990.84;5038231;28;46195;-62
2023/07/30 04:07:56;;;;;;;;;1.00;1.00;;;;;18.83;54.65;100983.03;5041159;28;45385;-62
2023/07/30 04:10:21;;;;;;;;;4.50;3.00;;;;;18.83;54.28;100985.69;5043117;28;45419;-62
2023/07/30 04:12:46;;;;;;;;;1.00;1.00;;;;;18.82;54.37;100989.28;5043086;28;45531;-62
2023/07/30 04:15:12;;;;;;;;;4.00;0.00;;;;;18.81;54.63;100987.53;5042749;28;45249;-62
2023/07/30 04:17:37;;;;;;;;;3.25;3.25;;;;;18.81;54.52;100992.88;5042896;28;45336;-62
2023/07/30 04:20:04;;;;;;;;;1.00;1.00;;;;;18.80;54.77;101000.00;5043191;28;45452;-63
2023/07/30 04:22:29;;;;;;;;;2.00;2.00;;;;;18.82;54.49;100997.25;5041836;28;45487;-62
2023/07/30 04:24:55;;;;;;;;;3.00;2.00;;;;;18.83;54.55;100997.19;5042554;28;45332;-62
2023/07/30 04:27:20;;;;;;;;;1.75;1.75;;;;;18.84;54.66;101003.34;5042584;28;51994;-62
2023/07/30 04:29:45;;;;;;;;;1.75;1.75;;;;;18.83;54.71;101002.50;5042755;28;45572;-62
2023/07/30 04:32:11;;;;;;;;;1.25;1.00;;;;;18.84;54.41;101008.69;5042816;28;45159;-62
2023/07/30 04:34:36;;;;;;;;;1.50;1.00;;;;;18.80;54.48;100999.13;5042669;28;48084;-62
2023/07/30 04:37:02;;;;;;;;;2.75;2.00;;;;;18.79;54.30;101014.25;5042686;28;45275;-63
2023/07/30 04:39:27;;;;;;;;;4.50;1.00;;;;;18.80;54.34;101010.66;5041776;28;45301;-63
2023/07/30 04:41:53;;;;;;;;;2.25;1.50;;;;;18.79;54.45;101019.56;5042488;28;45245;-62
2023/07/30 04:44:18;;;;;;;;;2.00;1.50;;;;;18.77;54.55;101025.88;5042490;28;46159;-62
2023/07/30 04:46:43;;;;;;;;;4.00;2.00;;;;;18.74;54.61;101031.31;5042274;28;47544;-62
2023/07/30 04:49:09;;;;;;;;;3.00;2.25;;;;;18.68;54.91;101028.00;5042719;28;45296;-62
2023/07/30 04:51:34;;;;;;;;;0.75;0.25;;;;;18.69;54.78;101034.19;5042554;28;45340;-62
2023/07/30 04:53:59;;;;;;;;;2.50;2.00;;;;;18.68;54.94;101035.13;5042320;28;45440;-62
2023/07/30 04:56:26;;;;;;;;;2.00;1.00;;;;;18.66;55.00;101044.97;5042328;28;45321;-62
2023/07/30 04:58:51;;;;;;;;;3.25;1.50;;;;;18.62;54.81;101052.22;5042302;28;45302;-62
2023/07/30 05:01:17;;;;;;;;;4.75;1.50;;;;;18.62;54.92;101046.91;5042077;28;45297;-62
2023/07/30 05:03:42;;;;;;;;;1.00;1.00;;;;;18.60;55.04;101050.56;5042032;28;45300;-62
2023/07/30 05:06:07;;;;;;;;;2.50;2.00;;;;;18.60;54.71;101054.09;5042471;28;45384;-62
2023/07/30 05:08:33;;;;;;;;;2.50;1.75;;;;;18.58;55.02;101053.28;5042290;28;45273;-62
2023/07/30 05:10:58;;;;;;;;;2.25;2.00;;;;;18.56;55.26;101055.16;5041916;28;45337;-62
2023/07/30 05:13:24;;;;;;;;;3.50;3.00;;;;;18.58;54.83;101055.06;5041684;28;45147;-62
2023/07/30 05:15:49;;;;;;;;;3.00;1.75;;;;;18.56;55.03;101057.81;5041697;28;45411;-62
2023/07/30 05:18:14;;;;;;;;;2.00;1.00;;;;;18.55;55.20;101056.06;5041983;28;45488;-62
2023/07/30 05:20:40;;;;;;;;;1.00;1.00;;;;;18.55;54.91;101065.84;5041259;28;45237;-62
2023/07/30 05:23:06;;;;;;;;;3.75;2.00;;;;;18.52;55.17;101066.84;5041238;28;52493;-62
2023/07/30 05:25:32;;;;;;;;;1.00;1.00;;;;;18.54;54.88;101077.44;5041659;28;45230;-62
2023/07/30 05:27:57;;;;;;;;;2.75;2.75;;;;;18.51;55.07;101071.31;5041688;28;45358;-62
2023/07/30 05:30:23;;;;;;;;;5.25;2.00;;;;;18.51;55.02;101075.75;5041431;28;51423;-62
2023/07/30 05:32:48;;;;;;;;;1.00;1.00;;;;;18.49;54.96;101083.81;5041508;28;46015;-63
2023/07/30 05:35:13;;;;;;;;;2.75;2.00;;;;;18.50;55.09;101082.00;5041551;28;45576;-62
2023/07/30 05:37:39;;;;;;;;;1.50;1.00;;;;;18.48;54.96;101078.56;5041763;28;45251;-62
2023/07/30 05:40:05;;;;;;;;;3.00;1.00;;;;;18.46;55.11;101083.94;5041477;28;46000;-62
2023/07/30 05:42:30;;;;;;;;;1.00;1.00;;;;;18.37;55.56;101079.00;5041455;28;46135;-62
2023/07/30 05:44:55;;;;;;;;;1.25;1.00;;;;;18.43;55.39;101088.53;5039978;28;45383;-62
2023/07/30 05:47:20;;;;;;;;;2.50;2.25;;;;;18.41;55.24;101088.59;5041591;28;45486;-62
2023/07/30 05:49:46;;;;;;;;;1.75;1.00;;;;;18.37;55.54;101089.66;5041496;28;45548;-62
2023/07/30 05:52:11;;;;;;;;;1.50;1.50;;;;;18.37;55.08;101084.31;5041064;28;57754;-62
2023/07/30 05:54:36;;;;;;;;;5.50;2.00;;;;;18.36;55.33;101085.25;5041183;28;50538;-62
2023/07/30 05:57:02;;;;;;;;;1.75;1.75;;;;;18.34;55.27;101079.16;5041154;28;45282;-62
2023/07/30 05:59:27;;;;;;;;;2.00;1.00;;;;;18.34;55.46;101080.00;5023150;28;45336;-62
2023/07/30 06:01:52;;;;;;;;;2.00;1.00;;;;;18.35;55.36;101087.06;5041142;28;46102;-62
2023/07/30 06:04:18;;;;;;;;;3.25;1.25;;;;;18.34;55.57;101092.44;5029153;28;45411;-62
2023/07/30 06:06:43;;;;;;;;;2.00;1.75;;;;;18.31;55.21;101082.81;5021365;28;45239;-62
2023/07/30 06:09:08;;;;;;;;;6.50;1.00;;;;;18.33;55.18;101088.91;5021321;28;45175;-62
2023/07/30 06:11:34;;;;;;;;;2.50;1.25;;;;;18.34;55.22;101092.44;5021084;28;45990;-62
2023/07/30 06:13:59;;;;;;;;;1.50;1.50;;;;;18.33;55.56;101094.22;5031119;28;55142;-62
2023/07/30 06:16:24;;;;;;;;;2.00;2.00;;;;;18.33;55.41;101093.38;5041022;28;45226;-62
2023/07/30 06:18:49;;;;;;;;;2.00;2.00;;;;;18.32;55.29;101099.63;5041113;28;45218;-62
2023/07/30 06:21:15;;;;;;;;;1.67;1.33;;;;;18.36;55.26;101109.19;5040763;28;47878;-62
2023/07/30 06:23:40;;;;;;;;;1.33;1.33;;;;;18.35;55.46;101103.03;5040811;28;45337;-62
2023/07/30 06:26:05;;;;;;;;;7.00;2.50;;;;;18.38;55.50;101104.69;5036498;28;45332;-62
2023/07/30 06:28:31;;;;;;;;;2.75;2.00;;;;;18.38;55.26;101102.03;5039711;28;45574;-62
2023/07/30 06:31:00;;;;;;;;;5.50;2.25;;;;;18.38;55.68;101117.09;5022504;28;45569;-62
2023/07/30 06:33:25;;;;;;;;;3.50;2.25;;;;;18.38;55.48;101111.78;5021097;28;45321;-62
2023/07/30 06:35:51;;;;;;;;;3.00;2.25;;;;;18.37;55.68;101118.91;5020868;28;45289;-62
2023/07/30 06:38:16;;;;;;;;;2.50;2.00;;;;;18.39;55.40;101126.81;5020550;28;52651;-62
2023/07/30 06:40:41;;;;;;;;;4.50;3.00;;;;;18.41;55.69;101132.97;5020544;28;51294;-62
2023/07/30 06:43:06;;;;;;;;;3.25;1.75;;;;;18.40;55.65;101134.78;5020472;28;52690;-62
2023/07/30 06:45:32;;;;;;;;;4.50;2.00;;;;;18.42;55.63;101134.69;5020716;28;45290;-62
2023/07/30 06:47:57;;;;;;;;;2.50;1.50;;;;;18.42;55.51;101130.22;5020674;28;46033;-63
2023/07/30 06:50:22;;;;;;;;;4.75;4.75;;;;;18.43;55.49;101123.97;5020483;28;46276;-62
2023/07/30 06:52:48;;;;;;;;;6.50;2.50;;;;;18.43;55.80;101131.13;5020692;28;45211;-62
2023/07/30 06:55:13;;;;;;;;;4.25;2.00;;;;;18.46;55.68;101131.81;5020538;28;45595;-62
2023/07/30 06:57:38;;;;;;;;;4.00;1.25;;;;;18.47;55.50;101133.56;5020607;28;45540;-62
2023/07/30 07:00:04;;;;;;;;;3.00;2.00;;;;;18.49;55.44;101139.69;5036331;28;47139;-62
2023/07/30 07:02:30;;;;;;;;;3.00;2.00;;;;;18.51;55.77;101145.84;5040477;28;45165;-62
2023/07/30 07:04:55;;;;;;;;;2.25;1.75;;;;;18.54;55.27;101142.19;5040237;28;45263;-62
2023/07/30 07:07:20;;;;;;;;;3.75;3.00;;;;;18.57;55.63;101143.84;5040434;28;45175;-62
2023/07/30 07:09:46;;;;;;;;;2.50;2.50;;;;;18.60;55.17;101143.72;5040156;28;46208;-62
2023/07/30 07:12:12;;;;;;;;;4.00;1.75;;;;;18.63;55.78;101144.44;5040222;28;45245;-62
2023/07/30 07:14:37;;;;;;;;;4.50;2.00;;;;;18.69;55.61;101153.97;5040072;28;45804;-62
2023/07/30 07:17:03;;;;;;;;;4.00;2.25;;;;;18.71;55.26;101144.13;5022364;28;45860;-62
2023/07/30 07:19:28;;;;;;;;;1.25;1.25;;;;;18.77;55.26;101140.34;5039965;28;45433;-63
2023/07/30 07:21:53;;;;;;;;;2.50;1.00;;;;;18.81;55.32;101149.94;5039878;28;45339;-62
2023/07/30 07:24:19;;;;;;;;;1.00;1.00;;;;;18.84;55.46;101139.13;5040018;28;45360;-62
2023/07/30 07:26:44;;;;;;;;;2.25;2.00;;;;;18.91;54.96;101156.63;5040053;28;45298;-62
2023/07/30 07:29:10;;;;;;;;;3.00;2.00;;;;;18.94;55.34;101147.63;5039788;28;46102;-62
2023/07/30 07:31:35;;;;;;;;;6.00;2.50;;;;;18.95;55.25;101144.91;5039768;28;45286;-62
2023/07/30 07:34:00;;;;;;;;;3.25;2.00;;;;;19.03;55.17;101138.38;5039991;28;45328;-62
2023/07/30 07:36:26;;;;;;;;;2.00;2.00;;;;;19.07;54.94;101146.19;5039987;28;46589;-62
2023/07/30 07:38:51;;;;;;;;;6.50;5.75;;;;;19.10;55.04;101145.19;5039678;28;46298;-62
2023/07/30 07:41:17;;;;;;;;;3.75;2.00;;;;;19.14;55.16;101145.00;5026440;28;45427;-62
2023/07/30 07:43:43;;;;;;;;;1.50;1.25;;;;;19.18;54.85;101140.38;5024851;28;45261;-62
2023/07/30 07:46:13;;;;;;;;;3.00;2.50;;;;;19.20;54.83;101157.16;5019564;28;45404;-62
2023/07/30 07:48:40;;;;;;;;;2.00;2.00;;;;;19.23;54.83;101158.81;5019603;28;46965;-62
2023/07/30 07:51:05;;;;;;;;;1.75;1.75;;;;;19.23;54.32;101145.50;5019759;28;45353;-62
2023/07/30 07:53:31;;;;;;;;;0.50;0.50;;;;;19.27;54.42;101147.97;5019895;28;45344;-62
2023/07/30 07:55:56;;;;;;;;;2.00;2.00;;;;;19.31;54.58;101146.06;5019501;28;45567;-62
2023/07/30 07:58:21;;;;;;;;;2.50;2.00;;;;;19.32;54.05;101153.13;5021665;28;45424;-61
2023/07/30 08:00:47;;;;;;;;;4.25;2.75;;;;;19.35;53.96;101160.97;5039347;28;45471;-62
2023/07/30 08:03:12;;;;;;;;;5.00;3.00;;;;;19.43;53.93;101166.81;5039625;28;45324;-62
2023/07/30 08:05:38;;;;;;;;;2.00;2.00;;;;;19.48;53.73;101166.59;5039544;28;46289;-62
2023/07/30 08:08:03;;;;;;;;;4.75;4.00;;;;;19.49;53.47;101166.53;5039174;28;54282;-62
2023/07/30 08:10:28;;;;;;;;;2.25;2.25;;;;;19.54;53.28;101174.31;5039281;28;45330;-61
2023/07/30 08:12:53;;;;;;;;;6.75;2.75;;;;;19.58;53.16;101172.38;5039372;28;45369;-61
2023/07/30 08:15:19;;;;;;;;;3.00;3.00;;;;;19.63;53.43;101178.38;5038911;28;52202;-61
2023/07/30 08:17:44;;;;;;;;;3.25;3.25;;;;;19.68;53.08;101181.69;5038792;28;45537;-61
2023/07/30 08:20:10;;;;;;;;;3.00;3.00;;;;;19.72;53.15;101185.09;5039490;28;45210;-62
2023/07/30 08:22:35;;;;;;;;;2.75;2.75;;;;;19.75;53.01;101191.16;5039263;28;45279;-62
2023/07/30 08:25:02;;;;;;;;;2.00;2.00;;;;;19.79;53.30;101187.41;5039144;28;45447;-62
2023/07/30 08:27:27;;;;;;;;;2.75;2.00;;;;;19.80;53.15;101181.13;5038351;28;46215;-62
2023/07/30 08:29:52;;;;;;;;;3.75;3.75;;;;;19.80;52.90;101175.81;5039094;28;45497;-62
2023/07/30 08:32:18;;;;;;;;;2.25;2.25;;;;;19.85;52.77;101175.63;5039088;28;47272;-61
2023/07/30 08:34:43;;;;;;;;;4.25;3.25;;;;;19.90;53.05;101175.41;5039229;28;45404;-61
2023/07/30 08:37:08;;;;;;;;;3.50;3.00;;;;;19.93;53.06;101164.59;5024906;28;46114;-62
2023/07/30 08:39:34;;;;;;;;;5.00;3.00;;;;;19.94;52.48;101169.00;5019330;28;45387;-62
2023/07/30 08:41:59;;;;;;;;;3.75;3.75;;;;;20.00;52.28;101192.72;5018991;28;45396;-62
2023/07/30 08:44:25;;;;;;;;;3.50;3.25;;;;;20.04;52.94;101180.97;5018869;28;45338;-62
2023/07/30 08:46:50;;;;;;;;;2.50;2.00;;;;;20.09;52.67;101180.75;5018925;28;46899;-62
2023/07/30 08:49:16;;;;;;;;;3.00;3.00;;;;;20.12;52.74;101181.47;5019257;28;45345;-62
2023/07/30 08:51:42;;;;;;;;;3.00;3.00;;;;;20.18;52.03;101180.31;5018767;28;47574;-62
2023/07/30 08:54:10;;;;;;;;;2.50;0.75;;;;;20.21;52.59;101180.16;5019870;28;45623;-62
2023/07/30 08:56:35;;;;;;;;;3.00;2.50;;;;;20.22;52.39;101167.69;5022075;28;46204;-62
2023/07/30 08:59:03;;;;;;;;;3.25;2.00;;;;;20.29;52.32;101179.81;5029645;28;45194;-62
2023/07/30 09:01:34;;;;;;;;;5.50;3.00;;;;;20.36;52.37;101186.56;5040672;28;45336;-62
2023/07/30 09:04:00;;;;;;;;;2.50;2.00;;;;;20.41;52.16;101176.53;5042036;28;45361;-62
2023/07/30 09:06:26;;;;;;;;;5.00;3.25;;;;;20.44;52.20;101179.06;5041918;28;46143;-62
2023/07/30 09:08:51;;;;;;;;;1.50;0.75;;;;;20.50;51.74;101179.69;5042365;28;45213;-62
2023/07/30 09:11:16;;;;;;;;;3.00;1.50;;;;;20.55;51.57;101180.31;5042133;28;45283;-62
2023/07/30 09:13:42;;;;;;;;;2.00;2.00;;;;;20.61;51.91;101180.88;5042044;28;45170;-62
2023/07/30 09:16:12;;;;;;;;;4.00;1.00;;;;;20.68;51.41;101178.78;5041723;28;46293;-62
2023/07/30 09:18:46;;;;;;;;;3.00;2.00;;;;;20.74;51.17;101177.63;5042081;28;45277;-62
2023/07/30 09:21:12;;;;;;;;;3.50;2.00;;;;;20.77;50.99;101181.03;5041975;28;45265;-62
2023/07/30 09:23:44;;;;;;;;;4.75;3.00;;;;;20.82;51.32;101179.91;5041628;28;45467;-62
2023/07/30 09:26:09;;;;;;;;;6.00;5.00;;;;;20.89;51.40;101176.00;5041455;28;47148;-62
2023/07/30 09:28:35;;;;;;;;;1.50;1.25;;;;;20.98;51.30;101175.56;5040951;28;45365;-62
2023/07/30 09:31:02;;;;;;;;;1.50;1.50;;;;;21.09;50.98;101193.69;5041674;28;45344;-62
2023/07/30 09:33:27;;;;;;;;;3.75;2.00;;;;;21.15;50.44;101181.84;5041861;28;45246;-62
2023/07/30 09:35:53;;;;;;;;;4.00;2.00;;;;;21.19;50.40;101188.75;5041380;28;46162;-62
2023/07/30 09:38:19;;;;;;;;;2.00;2.00;;;;;21.24;50.36;101173.31;5041704;28;45372;-62
2023/07/30 09:40:47;;;;;;;;;3.00;2.00;;;;;21.28;50.10;101185.56;5041561;28;45322;-62
2023/07/30 09:43:12;;;;;;;;;2.50;1.00;;;;;21.34;50.25;101182.59;5041556;28;45171;-62
2023/07/30 09:45:38;;;;;;;;;2.00;2.00;;;;;21.38;50.37;101183.28;5040998;28;46114;-61
2023/07/30 09:48:05;;;;;;;;;2.00;1.25;;;;;21.40;49.91;101181.41;5041473;28;45384;-62
2023/07/30 09:50:31;;;;;;;;;4.00;3.25;;;;;21.42;50.37;101180.38;5023752;28;45507;-62
2023/07/30 09:53:00;;;;;;;;;3.00;2.00;;;;;21.45;50.39;101178.50;5041444;28;45438;-62
2023/07/30 09:55:26;;;;;;;;;1.50;1.50;;;;;21.51;50.21;101184.38;5041010;28;46233;-62
2023/07/30 09:57:51;;;;;;;;;3.50;3.50;;;;;21.52;50.52;101191.47;5041438;28;45150;-62
2023/07/30 10:00:17;;;;;;;;;3.00;2.50;;;;;21.57;49.79;101200.13;5041262;28;45293;-62
2023/07/30 10:02:48;;;;;;;;;2.50;2.00;;;;;21.59;49.74;101192.88;5040926;28;54391;-62
2023/07/30 10:05:19;;;;;;;;;3.00;3.00;;;;;21.61;49.60;101192.81;5040760;28;45450;-62
2023/07/30 10:07:51;;;;;;;;;4.00;2.00;;;;;21.65;49.07;101199.72;5039795;28;45407;-62
2023/07/30 10:10:18;;;;;;;;;2.00;2.00;;;;;21.68;48.77;101186.16;5041309;28;45305;-62
2023/07/30 10:12:44;;;;;;;;;1.25;1.25;;;;;21.72;49.10;101193.09;5040904;28;45483;-62
2023/07/30 10:15:09;;;;;;;;;2.50;2.00;;;;;21.75;48.70;101192.91;5033273;28;46067;-62
2023/07/30 10:17:35;;;;;;;;;4.75;3.00;;;;;21.85;48.93;101192.44;5019777;28;45349;-62
2023/07/30 10:20:28;;;;;;;;;2.00;2.00;;;;;21.96;48.62;101194.50;5021294;28;45720;-62
2023/07/30 10:22:55;;;;;;;;;2.00;2.00;;;;;22.03;48.72;101194.06;5017167;28;46338;-62
2023/07/30 10:25:48;;;;;;;;;3.00;3.00;;;;;22.16;48.85;101204.09;5020711;28;45401;-62
2023/07/30 10:28:26;;;;;;;;;2.25;2.25;;;;;22.29;48.61;101194.44;5020919;28;45369;-62
2023/07/30 10:30:59;;;;;;;;;2.00;2.00;;;;;22.43;49.17;101203.53;5020556;28;45263;-62
2023/07/30 10:33:44;;;;;;;;;3.75;2.50;;;;;22.54;48.52;101210.00;5020534;28;45334;-62
2023/07/30 10:36:10;;;;;;;;;1.25;1.25;;;;;22.68;48.43;101217.25;5020366;28;46326;-62
2023/07/30 10:38:36;;;;;;;;;2.00;2.00;;;;;22.85;48.52;101210.03;5025889;28;45262;-62
2023/07/30 10:41:06;;;;;;;;;4.00;3.00;;;;;23.05;48.56;101211.53;5020711;28;45283;-62
2023/07/30 10:43:50;;;;;;;;;1.75;1.75;;;;;23.27;48.31;101211.16;5020418;28;45469;-62
2023/07/30 10:46:17;;;;;;;;;5.00;2.00;;;;;23.53;47.82;101206.91;5020294;28;46425;-62
2023/07/30 10:48:44;;;;;;;;;2.00;1.75;;;;;23.70;47.27;101208.50;5020328;28;45260;-62
2023/07/30 10:51:12;;;;;;;;;2.00;2.00;;;;;23.87;47.11;101214.63;5020420;28;45365;-62
2023/07/30 10:53:39;;;;;;;;;1.00;1.00;;;;;24.01;47.05;101219.16;5018916;28;45434;-62
2023/07/30 10:56:05;;;;;;;;;3.50;2.50;;;;;24.17;46.54;101211.00;5020134;28;46000;-63
2023/07/30 10:58:31;;;;;;;;;0.00;0.00;;;;;24.27;46.55;101204.06;5023380;28;45277;-63
2023/07/30 11:00:57;;;;;;;;;1.25;1.00;;;;;24.44;46.52;101208.34;5040130;28;45293;-63
2023/07/30 11:03:26;;;;;;;;;1.00;1.00;;;;;24.59;46.53;101206.50;5039927;28;45231;-63
2023/07/30 11:05:52;;;;;;;;;1.50;1.50;;;;;24.75;45.96;101205.50;5040069;28;46562;-63
2023/07/30 11:08:17;;;;;;;;;0.75;0.75;;;;;24.81;45.76;101215.84;5039985;28;45417;-63
2023/07/30 11:10:49;;;;;;;;;1.00;1.00;;;;;24.91;45.38;101206.19;5040362;28;45408;-63
2023/07/30 11:13:14;;;;;;;;;3.00;3.00;;;;;24.98;45.25;101199.44;5039905;28;45311;-63
2023/07/30 11:15:45;;;;;;;;;2.50;2.00;;;;;25.08;44.89;101199.66;5039520;28;46236;-63
2023/07/30 11:18:12;;;;;;;;;2.75;2.00;;;;;25.19;45.33;101206.13;5037054;28;45193;-63
2023/07/30 11:20:38;;;;;;;;;3.00;1.25;;;;;25.33;44.90;101210.56;5040058;28;45316;-63